sensor_id;sensor_type;location;lat;lon;timestamp;P1;durP1;ratioP1;P2;durP2;ratioP2
70929;SDS011;58588;48.102;19.682;2023-07-02T00:01:56;17.70;;;11.70;;
70929;SDS011;58588;48.102;19.682;2023-07-02T00:04:59;17.73;;;11.68;;
70929;SDS011;58588;48.102;19.682;2023-07-02T00:08:01;16.65;;;11.60;;
70929;SDS011;58588;48.102;19.682;2023-07-02T00:11:03;19.30;;;11.95;;
70929;SDS011;58588;48.102;19.682;2023-07-02T00:14:05;18.17;;;11.57;;
70929;SDS011;58588;48.102;19.682;2023-07-02T00:17:09;17.80;;;12.25;;
70929;SDS011;58588;48.102;19.682;2023-07-02T00:20:12;16.48;;;11.77;;
70929;SDS011;58588;48.102;19.682;2023-07-02T00:23:17;19.63;;;11.57;;
70929;SDS011;58588;48.102;19.682;2023-07-02T00:26:20;16.27;;;11.70;;
70929;SDS011;58588;48.102;19.682;2023-07-02T00:29:22;16.77;;;11.47;;
70929;SDS011;58588;48.102;19.682;2023-07-02T00:32:25;16.38;;;11.38;;
70929;SDS011;58588;48.102;19.682;2023-07-02T00:35:27;16.48;;;11.05;;
70929;SDS011;58588;48.102;19.682;2023-07-02T00:38:29;20.98;;;12.30;;
70929;SDS011;58588;48.102;19.682;2023-07-02T00:41:31;17.40;;;11.57;;
70929;SDS011;58588;48.102;19.682;2023-07-02T00:44:33;20.60;;;11.97;;
70929;SDS011;58588;48.102;19.682;2023-07-02T00:47:42;23.90;;;11.20;;
70929;SDS011;58588;48.102;19.682;2023-07-02T00:50:44;18.83;;;11.30;;
70929;SDS011;58588;48.102;19.682;2023-07-02T00:53:47;19.80;;;11.95;;
70929;SDS011;58588;48.102;19.682;2023-07-02T00:56:50;17.30;;;11.63;;
70929;SDS011;58588;48.102;19.682;2023-07-02T00:59:52;15.80;;;11.10;;
70929;SDS011;58588;48.102;19.682;2023-07-02T01:02:56;17.45;;;11.32;;
70929;SDS011;58588;48.102;19.682;2023-07-02T01:05:59;15.90;;;11.00;;
70929;SDS011;58588;48.102;19.682;2023-07-02T01:09:03;20.00;;;11.55;;
70929;SDS011;58588;48.102;19.682;2023-07-02T01:12:07;18.77;;;11.10;;
70929;SDS011;58588;48.102;19.682;2023-07-02T01:15:11;20.47;;;11.73;;
70929;SDS011;58588;48.102;19.682;2023-07-02T01:18:15;18.23;;;11.13;;
70929;SDS011;58588;48.102;19.682;2023-07-02T01:21:19;20.83;;;11.10;;
70929;SDS011;58588;48.102;19.682;2023-07-02T01:24:23;18.63;;;11.57;;
70929;SDS011;58588;48.102;19.682;2023-07-02T01:27:27;18.00;;;11.45;;
70929;SDS011;58588;48.102;19.682;2023-07-02T01:30:30;19.17;;;11.77;;
70929;SDS011;58588;48.102;19.682;2023-07-02T01:33:32;19.83;;;13.15;;
70929;SDS011;58588;48.102;19.682;2023-07-02T01:36:35;18.40;;;12.88;;
70929;SDS011;58588;48.102;19.682;2023-07-02T01:39:37;19.52;;;13.65;;
70929;SDS011;58588;48.102;19.682;2023-07-02T01:42:39;17.08;;;12.45;;
70929;SDS011;58588;48.102;19.682;2023-07-02T01:45:42;17.57;;;12.07;;
70929;SDS011;58588;48.102;19.682;2023-07-02T01:48:44;18.25;;;12.95;;
70929;SDS011;58588;48.102;19.682;2023-07-02T01:51:50;16.55;;;11.93;;
70929;SDS011;58588;48.102;19.682;2023-07-02T01:54:52;26.27;;;12.45;;
70929;SDS011;58588;48.102;19.682;2023-07-02T01:57:54;19.98;;;13.05;;
70929;SDS011;58588;48.102;19.682;2023-07-02T02:00:56;16.77;;;11.50;;
70929;SDS011;58588;48.102;19.682;2023-07-02T02:03:58;21.95;;;12.00;;
70929;SDS011;58588;48.102;19.682;2023-07-02T02:07:02;24.35;;;11.98;;
70929;SDS011;58588;48.102;19.682;2023-07-02T02:10:05;21.25;;;11.57;;
70929;SDS011;58588;48.102;19.682;2023-07-02T02:13:09;21.90;;;11.48;;
70929;SDS011;58588;48.102;19.682;2023-07-02T02:16:11;33.73;;;11.90;;
70929;SDS011;58588;48.102;19.682;2023-07-02T02:19:14;19.70;;;11.90;;
70929;SDS011;58588;48.102;19.682;2023-07-02T02:22:17;19.95;;;11.93;;
70929;SDS011;58588;48.102;19.682;2023-07-02T02:25:19;18.38;;;12.50;;
70929;SDS011;58588;48.102;19.682;2023-07-02T02:28:21;20.08;;;13.02;;
70929;SDS011;58588;48.102;19.682;2023-07-02T02:31:24;18.57;;;12.47;;
70929;SDS011;58588;48.102;19.682;2023-07-02T02:34:26;16.90;;;11.95;;
70929;SDS011;58588;48.102;19.682;2023-07-02T02:37:30;22.83;;;11.90;;
70929;SDS011;58588;48.102;19.682;2023-07-02T02:40:34;17.85;;;11.38;;
70929;SDS011;58588;48.102;19.682;2023-07-02T02:43:40;24.17;;;11.57;;
70929;SDS011;58588;48.102;19.682;2023-07-02T02:46:42;20.50;;;10.60;;
70929;SDS011;58588;48.102;19.682;2023-07-02T02:49:44;19.33;;;10.75;;
70929;SDS011;58588;48.102;19.682;2023-07-02T02:52:48;23.15;;;10.95;;
70929;SDS011;58588;48.102;19.682;2023-07-02T02:55:50;17.98;;;12.00;;
70929;SDS011;58588;48.102;19.682;2023-07-02T02:58:52;16.85;;;12.18;;
70929;SDS011;58588;48.102;19.682;2023-07-02T03:01:54;21.73;;;12.43;;
70929;SDS011;58588;48.102;19.682;2023-07-02T03:04:56;21.50;;;12.45;;
70929;SDS011;58588;48.102;19.682;2023-07-02T03:08:04;19.77;;;11.98;;
70929;SDS011;58588;48.102;19.682;2023-07-02T03:11:06;18.58;;;12.02;;
70929;SDS011;58588;48.102;19.682;2023-07-02T03:14:09;18.92;;;10.80;;
70929;SDS011;58588;48.102;19.682;2023-07-02T03:17:11;15.13;;;10.53;;
70929;SDS011;58588;48.102;19.682;2023-07-02T03:20:14;18.75;;;11.82;;
70929;SDS011;58588;48.102;19.682;2023-07-02T03:23:18;17.58;;;11.30;;
70929;SDS011;58588;48.102;19.682;2023-07-02T03:26:20;14.60;;;10.23;;
70929;SDS011;58588;48.102;19.682;2023-07-02T03:29:23;16.58;;;11.57;;
70929;SDS011;58588;48.102;19.682;2023-07-02T03:32:25;20.57;;;11.33;;
70929;SDS011;58588;48.102;19.682;2023-07-02T03:35:27;16.80;;;11.38;;
70929;SDS011;58588;48.102;19.682;2023-07-02T03:38:30;17.85;;;11.30;;
70929;SDS011;58588;48.102;19.682;2023-07-02T03:41:32;16.77;;;11.50;;
70929;SDS011;58588;48.102;19.682;2023-07-02T03:44:36;17.35;;;11.90;;
70929;SDS011;58588;48.102;19.682;2023-07-02T03:47:38;17.83;;;11.60;;
70929;SDS011;58588;48.102;19.682;2023-07-02T03:50:40;17.73;;;12.27;;
70929;SDS011;58588;48.102;19.682;2023-07-02T03:53:43;18.65;;;13.20;;
70929;SDS011;58588;48.102;19.682;2023-07-02T03:56:45;17.88;;;12.32;;
70929;SDS011;58588;48.102;19.682;2023-07-02T03:59:47;19.85;;;12.30;;
70929;SDS011;58588;48.102;19.682;2023-07-02T04:02:49;18.00;;;11.40;;
70929;SDS011;58588;48.102;19.682;2023-07-02T04:05:51;17.65;;;12.15;;
70929;SDS011;58588;48.102;19.682;2023-07-02T04:08:55;21.40;;;12.35;;
70929;SDS011;58588;48.102;19.682;2023-07-02T04:11:57;17.95;;;11.57;;
70929;SDS011;58588;48.102;19.682;2023-07-02T04:14:59;20.05;;;12.25;;
70929;SDS011;58588;48.102;19.682;2023-07-02T04:18:01;17.00;;;11.80;;
70929;SDS011;58588;48.102;19.682;2023-07-02T04:21:04;17.25;;;11.15;;
70929;SDS011;58588;48.102;19.682;2023-07-02T04:24:07;18.08;;;10.98;;
70929;SDS011;58588;48.102;19.682;2023-07-02T04:27:09;17.33;;;10.38;;
70929;SDS011;58588;48.102;19.682;2023-07-02T04:30:11;15.98;;;11.05;;
70929;SDS011;58588;48.102;19.682;2023-07-02T04:33:14;19.03;;;11.40;;
70929;SDS011;58588;48.102;19.682;2023-07-02T04:36:16;17.42;;;11.25;;
70929;SDS011;58588;48.102;19.682;2023-07-02T04:39:19;18.42;;;10.98;;
70929;SDS011;58588;48.102;19.682;2023-07-02T04:42:22;24.92;;;11.77;;
70929;SDS011;58588;48.102;19.682;2023-07-02T04:45:27;17.27;;;11.55;;
70929;SDS011;58588;48.102;19.682;2023-07-02T04:48:35;19.37;;;11.30;;
70929;SDS011;58588;48.102;19.682;2023-07-02T04:51:37;19.88;;;12.70;;
70929;SDS011;58588;48.102;19.682;2023-07-02T04:54:41;23.88;;;14.45;;
70929;SDS011;58588;48.102;19.682;2023-07-02T04:57:43;27.33;;;16.33;;
70929;SDS011;58588;48.102;19.682;2023-07-02T05:00:45;25.60;;;15.30;;
70929;SDS011;58588;48.102;19.682;2023-07-02T05:03:47;23.83;;;14.87;;
70929;SDS011;58588;48.102;19.682;2023-07-02T05:06:49;26.48;;;16.20;;
70929;SDS011;58588;48.102;19.682;2023-07-02T05:09:52;27.55;;;15.57;;
70929;SDS011;58588;48.102;19.682;2023-07-02T05:12:54;23.63;;;15.32;;
70929;SDS011;58588;48.102;19.682;2023-07-02T05:15:56;24.38;;;14.95;;
70929;SDS011;58588;48.102;19.682;2023-07-02T05:18:58;23.47;;;14.43;;
70929;SDS011;58588;48.102;19.682;2023-07-02T05:22:00;22.77;;;13.95;;
70929;SDS011;58588;48.102;19.682;2023-07-02T05:25:04;22.48;;;14.25;;
70929;SDS011;58588;48.102;19.682;2023-07-02T05:28:07;24.45;;;13.15;;
70929;SDS011;58588;48.102;19.682;2023-07-02T05:31:09;20.10;;;13.45;;
70929;SDS011;58588;48.102;19.682;2023-07-02T05:34:11;21.37;;;13.17;;
70929;SDS011;58588;48.102;19.682;2023-07-02T05:37:13;20.25;;;13.35;;
70929;SDS011;58588;48.102;19.682;2023-07-02T05:40:16;20.55;;;13.18;;
70929;SDS011;58588;48.102;19.682;2023-07-02T05:43:18;24.45;;;12.95;;
70929;SDS011;58588;48.102;19.682;2023-07-02T05:46:20;20.38;;;12.73;;
70929;SDS011;58588;48.102;19.682;2023-07-02T05:49:22;18.50;;;12.37;;
70929;SDS011;58588;48.102;19.682;2023-07-02T05:52:26;20.98;;;12.35;;
70929;SDS011;58588;48.102;19.682;2023-07-02T05:55:29;22.60;;;12.55;;
70929;SDS011;58588;48.102;19.682;2023-07-02T05:58:31;20.67;;;12.88;;
70929;SDS011;58588;48.102;19.682;2023-07-02T06:01:34;19.58;;;12.38;;
70929;SDS011;58588;48.102;19.682;2023-07-02T06:04:36;20.53;;;12.33;;
70929;SDS011;58588;48.102;19.682;2023-07-02T06:07:38;20.20;;;12.38;;
70929;SDS011;58588;48.102;19.682;2023-07-02T06:10:41;18.58;;;12.70;;
70929;SDS011;58588;48.102;19.682;2023-07-02T06:13:43;21.73;;;12.93;;
70929;SDS011;58588;48.102;19.682;2023-07-02T06:16:45;18.73;;;11.88;;
70929;SDS011;58588;48.102;19.682;2023-07-02T06:19:47;22.23;;;12.27;;
70929;SDS011;58588;48.102;19.682;2023-07-02T06:22:50;18.98;;;12.15;;
70929;SDS011;58588;48.102;19.682;2023-07-02T06:25:53;19.83;;;11.63;;
70929;SDS011;58588;48.102;19.682;2023-07-02T06:28:59;19.65;;;11.80;;
70929;SDS011;58588;48.102;19.682;2023-07-02T06:32:01;18.52;;;11.45;;
70929;SDS011;58588;48.102;19.682;2023-07-02T06:35:04;23.37;;;11.87;;
70929;SDS011;58588;48.102;19.682;2023-07-02T06:38:06;17.90;;;11.13;;
70929;SDS011;58588;48.102;19.682;2023-07-02T06:41:10;19.75;;;11.45;;
70929;SDS011;58588;48.102;19.682;2023-07-02T06:44:12;18.88;;;11.20;;
70929;SDS011;58588;48.102;19.682;2023-07-02T06:47:14;18.65;;;11.15;;
70929;SDS011;58588;48.102;19.682;2023-07-02T06:50:16;18.97;;;10.50;;
70929;SDS011;58588;48.102;19.682;2023-07-02T06:53:18;21.90;;;11.52;;
70929;SDS011;58588;48.102;19.682;2023-07-02T06:56:22;17.17;;;10.63;;
70929;SDS011;58588;48.102;19.682;2023-07-02T06:59:24;16.75;;;9.95;;
70929;SDS011;58588;48.102;19.682;2023-07-02T07:02:26;17.25;;;9.95;;
70929;SDS011;58588;48.102;19.682;2023-07-02T07:05:34;15.90;;;10.10;;
70929;SDS011;58588;48.102;19.682;2023-07-02T07:08:37;13.90;;;8.95;;
70929;SDS011;58588;48.102;19.682;2023-07-02T07:11:41;15.68;;;9.35;;
70929;SDS011;58588;48.102;19.682;2023-07-02T07:14:43;15.07;;;8.75;;
70929;SDS011;58588;48.102;19.682;2023-07-02T07:17:45;14.80;;;9.27;;
70929;SDS011;58588;48.102;19.682;2023-07-02T07:20:47;14.87;;;9.00;;
70929;SDS011;58588;48.102;19.682;2023-07-02T07:23:49;15.20;;;8.98;;
70929;SDS011;58588;48.102;19.682;2023-07-02T07:26:52;16.02;;;9.45;;
70929;SDS011;58588;48.102;19.682;2023-07-02T07:29:54;15.75;;;8.98;;
70929;SDS011;58588;48.102;19.682;2023-07-02T07:32:56;15.55;;;9.05;;
70929;SDS011;58588;48.102;19.682;2023-07-02T07:35:58;14.33;;;8.00;;
70929;SDS011;58588;48.102;19.682;2023-07-02T07:39:01;17.98;;;8.63;;
70929;SDS011;58588;48.102;19.682;2023-07-02T07:42:05;15.35;;;9.43;;
70929;SDS011;58588;48.102;19.682;2023-07-02T07:45:08;12.93;;;8.55;;
70929;SDS011;58588;48.102;19.682;2023-07-02T07:48:11;15.30;;;8.60;;
70929;SDS011;58588;48.102;19.682;2023-07-02T07:51:14;13.20;;;8.33;;
70929;SDS011;58588;48.102;19.682;2023-07-02T07:54:16;17.27;;;9.07;;
70929;SDS011;58588;48.102;19.682;2023-07-02T07:57:19;14.18;;;8.48;;
70929;SDS011;58588;48.102;19.682;2023-07-02T08:00:21;17.52;;;8.77;;
70929;SDS011;58588;48.102;19.682;2023-07-02T08:03:24;13.93;;;8.10;;
70929;SDS011;58588;48.102;19.682;2023-07-02T08:06:27;15.30;;;8.33;;
70929;SDS011;58588;48.102;19.682;2023-07-02T08:09:29;13.75;;;8.02;;
70929;SDS011;58588;48.102;19.682;2023-07-02T08:12:32;13.65;;;8.32;;
70929;SDS011;58588;48.102;19.682;2023-07-02T08:15:35;14.48;;;8.25;;
70929;SDS011;58588;48.102;19.682;2023-07-02T08:18:37;13.45;;;7.95;;
70929;SDS011;58588;48.102;19.682;2023-07-02T08:21:44;17.17;;;8.20;;
70929;SDS011;58588;48.102;19.682;2023-07-02T08:24:46;13.77;;;7.53;;
70929;SDS011;58588;48.102;19.682;2023-07-02T08:27:51;13.55;;;7.43;;
70929;SDS011;58588;48.102;19.682;2023-07-02T08:30:53;14.70;;;8.25;;
70929;SDS011;58588;48.102;19.682;2023-07-02T08:33:55;12.45;;;7.15;;
70929;SDS011;58588;48.102;19.682;2023-07-02T08:36:57;15.40;;;6.87;;
70929;SDS011;58588;48.102;19.682;2023-07-02T08:39:59;14.23;;;6.07;;
70929;SDS011;58588;48.102;19.682;2023-07-02T08:43:03;12.45;;;6.43;;
70929;SDS011;58588;48.102;19.682;2023-07-02T08:46:05;13.35;;;5.97;;
70929;SDS011;58588;48.102;19.682;2023-07-02T08:49:08;11.75;;;6.45;;
70929;SDS011;58588;48.102;19.682;2023-07-02T08:52:10;11.57;;;6.07;;
70929;SDS011;58588;48.102;19.682;2023-07-02T08:55:12;11.30;;;5.20;;
70929;SDS011;58588;48.102;19.682;2023-07-02T08:58:16;10.55;;;4.72;;
70929;SDS011;58588;48.102;19.682;2023-07-02T09:01:18;15.05;;;6.65;;
70929;SDS011;58588;48.102;19.682;2023-07-02T09:04:21;9.95;;;4.90;;
70929;SDS011;58588;48.102;19.682;2023-07-02T09:07:25;10.97;;;4.87;;
70929;SDS011;58588;48.102;19.682;2023-07-02T09:10:28;12.82;;;4.75;;
70929;SDS011;58588;48.102;19.682;2023-07-02T09:13:41;10.70;;;4.63;;
70929;SDS011;58588;48.102;19.682;2023-07-02T09:16:43;9.93;;;4.40;;
70929;SDS011;58588;48.102;19.682;2023-07-02T09:19:49;7.95;;;4.00;;
70929;SDS011;58588;48.102;19.682;2023-07-02T09:22:53;7.43;;;3.40;;
70929;SDS011;58588;48.102;19.682;2023-07-02T09:25:56;7.80;;;3.65;;
70929;SDS011;58588;48.102;19.682;2023-07-02T09:29:02;7.55;;;3.45;;
70929;SDS011;58588;48.102;19.682;2023-07-02T09:32:04;10.05;;;4.20;;
70929;SDS011;58588;48.102;19.682;2023-07-02T09:35:07;9.07;;;4.10;;
70929;SDS011;58588;48.102;19.682;2023-07-02T09:38:10;9.27;;;3.70;;
70929;SDS011;58588;48.102;19.682;2023-07-02T09:41:12;11.75;;;3.58;;
70929;SDS011;58588;48.102;19.682;2023-07-02T09:44:16;12.45;;;4.05;;
70929;SDS011;58588;48.102;19.682;2023-07-02T09:47:19;8.57;;;4.63;;
70929;SDS011;58588;48.102;19.682;2023-07-02T09:50:22;10.73;;;4.32;;
70929;SDS011;58588;48.102;19.682;2023-07-02T09:53:26;11.07;;;4.80;;
70929;SDS011;58588;48.102;19.682;2023-07-02T09:56:29;10.77;;;5.22;;
70929;SDS011;58588;48.102;19.682;2023-07-02T09:59:32;10.93;;;5.35;;
70929;SDS011;58588;48.102;19.682;2023-07-02T10:02:35;9.13;;;4.97;;
70929;SDS011;58588;48.102;19.682;2023-07-02T10:06:02;15.15;;;5.78;;
70929;SDS011;58588;48.102;19.682;2023-07-02T10:09:05;14.07;;;5.13;;
70929;SDS011;58588;48.102;19.682;2023-07-02T10:12:17;10.32;;;5.20;;
70929;SDS011;58588;48.102;19.682;2023-07-02T10:15:25;9.57;;;4.82;;
70929;SDS011;58588;48.102;19.682;2023-07-02T10:18:27;9.65;;;4.78;;
70929;SDS011;58588;48.102;19.682;2023-07-02T10:21:29;8.73;;;4.85;;
70929;SDS011;58588;48.102;19.682;2023-07-02T10:24:31;11.50;;;5.00;;
70929;SDS011;58588;48.102;19.682;2023-07-02T10:27:34;9.82;;;5.22;;
70929;SDS011;58588;48.102;19.682;2023-07-02T10:30:38;9.73;;;4.68;;
70929;SDS011;58588;48.102;19.682;2023-07-02T10:33:42;10.80;;;4.80;;
70929;SDS011;58588;48.102;19.682;2023-07-02T10:36:45;19.30;;;6.50;;
70929;SDS011;58588;48.102;19.682;2023-07-02T10:39:47;12.87;;;5.93;;
70929;SDS011;58588;48.102;19.682;2023-07-02T10:42:49;13.10;;;5.10;;
70929;SDS011;58588;48.102;19.682;2023-07-02T10:45:54;9.50;;;5.10;;
70929;SDS011;58588;48.102;19.682;2023-07-02T10:48:56;10.30;;;4.45;;
70929;SDS011;58588;48.102;19.682;2023-07-02T10:51:59;9.15;;;4.68;;
70929;SDS011;58588;48.102;19.682;2023-07-02T10:55:01;9.67;;;4.33;;
70929;SDS011;58588;48.102;19.682;2023-07-02T10:58:04;55.13;;;10.80;;
70929;SDS011;58588;48.102;19.682;2023-07-02T11:01:09;24.80;;;6.35;;
70929;SDS011;58588;48.102;19.682;2023-07-02T11:04:11;13.05;;;5.15;;
70929;SDS011;58588;48.102;19.682;2023-07-02T11:07:13;12.27;;;4.88;;
70929;SDS011;58588;48.102;19.682;2023-07-02T11:10:19;12.83;;;4.70;;
70929;SDS011;58588;48.102;19.682;2023-07-02T11:13:21;9.18;;;4.53;;
70929;SDS011;58588;48.102;19.682;2023-07-02T11:16:25;8.80;;;4.20;;
70929;SDS011;58588;48.102;19.682;2023-07-02T11:19:29;8.38;;;4.00;;
70929;SDS011;58588;48.102;19.682;2023-07-02T11:22:31;8.68;;;4.20;;
70929;SDS011;58588;48.102;19.682;2023-07-02T11:25:34;9.73;;;3.90;;
70929;SDS011;58588;48.102;19.682;2023-07-02T11:28:36;8.02;;;3.85;;
70929;SDS011;58588;48.102;19.682;2023-07-02T11:31:50;9.32;;;3.85;;
70929;SDS011;58588;48.102;19.682;2023-07-02T11:34:53;7.93;;;3.95;;
70929;SDS011;58588;48.102;19.682;2023-07-02T11:37:56;7.80;;;3.55;;
70929;SDS011;58588;48.102;19.682;2023-07-02T11:40:58;7.70;;;3.70;;
70929;SDS011;58588;48.102;19.682;2023-07-02T11:44:00;9.50;;;3.72;;
70929;SDS011;58588;48.102;19.682;2023-07-02T11:47:04;9.93;;;3.60;;
70929;SDS011;58588;48.102;19.682;2023-07-02T11:50:07;8.35;;;3.45;;
70929;SDS011;58588;48.102;19.682;2023-07-02T11:53:12;9.02;;;4.18;;
70929;SDS011;58588;48.102;19.682;2023-07-02T11:56:15;7.23;;;3.73;;
70929;SDS011;58588;48.102;19.682;2023-07-02T11:59:18;8.23;;;3.90;;
70929;SDS011;58588;48.102;19.682;2023-07-02T12:02:21;10.13;;;3.45;;
70929;SDS011;58588;48.102;19.682;2023-07-02T12:05:23;9.13;;;3.67;;
70929;SDS011;58588;48.102;19.682;2023-07-02T12:08:42;10.07;;;3.58;;
70929;SDS011;58588;48.102;19.682;2023-07-02T12:11:45;8.53;;;3.43;;
70929;SDS011;58588;48.102;19.682;2023-07-02T12:14:47;9.82;;;5.20;;
70929;SDS011;58588;48.102;19.682;2023-07-02T12:17:50;9.45;;;4.40;;
70929;SDS011;58588;48.102;19.682;2023-07-02T12:20:52;10.15;;;3.60;;
70929;SDS011;58588;48.102;19.682;2023-07-02T12:23:54;6.65;;;3.15;;
70929;SDS011;58588;48.102;19.682;2023-07-02T12:26:56;6.63;;;2.63;;
70929;SDS011;58588;48.102;19.682;2023-07-02T12:29:58;8.27;;;2.70;;
70929;SDS011;58588;48.102;19.682;2023-07-02T12:33:02;7.95;;;2.95;;
70929;SDS011;58588;48.102;19.682;2023-07-02T12:36:04;6.97;;;2.90;;
70929;SDS011;58588;48.102;19.682;2023-07-02T12:39:06;7.72;;;3.40;;
70929;SDS011;58588;48.102;19.682;2023-07-02T12:42:08;7.60;;;3.17;;
70929;SDS011;58588;48.102;19.682;2023-07-02T12:45:11;7.55;;;3.30;;
70929;SDS011;58588;48.102;19.682;2023-07-02T12:48:15;7.55;;;3.20;;
70929;SDS011;58588;48.102;19.682;2023-07-02T12:51:17;8.52;;;3.00;;
70929;SDS011;58588;48.102;19.682;2023-07-02T12:54:19;9.32;;;3.00;;
70929;SDS011;58588;48.102;19.682;2023-07-02T12:57:21;7.83;;;2.90;;
70929;SDS011;58588;48.102;19.682;2023-07-02T13:00:23;7.97;;;2.78;;
70929;SDS011;58588;48.102;19.682;2023-07-02T13:03:29;6.22;;;2.55;;
70929;SDS011;58588;48.102;19.682;2023-07-02T13:06:32;5.90;;;2.10;;
70929;SDS011;58588;48.102;19.682;2023-07-02T13:09:40;6.68;;;2.17;;
70929;SDS011;58588;48.102;19.682;2023-07-02T13:12:42;6.33;;;2.20;;
70929;SDS011;58588;48.102;19.682;2023-07-02T13:15:44;7.03;;;2.30;;
70929;SDS011;58588;48.102;19.682;2023-07-02T13:18:47;9.60;;;2.40;;
70929;SDS011;58588;48.102;19.682;2023-07-02T13:21:49;6.50;;;2.00;;
70929;SDS011;58588;48.102;19.682;2023-07-02T13:24:51;5.90;;;2.10;;
70929;SDS011;58588;48.102;19.682;2023-07-02T13:27:53;5.90;;;1.80;;
70929;SDS011;58588;48.102;19.682;2023-07-02T13:30:56;6.20;;;1.70;;
70929;SDS011;58588;48.102;19.682;2023-07-02T13:33:59;6.05;;;1.77;;
70929;SDS011;58588;48.102;19.682;2023-07-02T13:37:01;5.18;;;1.80;;
70929;SDS011;58588;48.102;19.682;2023-07-02T13:40:04;4.93;;;1.80;;
70929;SDS011;58588;48.102;19.682;2023-07-02T13:43:08;7.30;;;1.77;;
70929;SDS011;58588;48.102;19.682;2023-07-02T13:46:10;6.30;;;1.65;;
70929;SDS011;58588;48.102;19.682;2023-07-02T13:49:14;6.65;;;1.50;;
70929;SDS011;58588;48.102;19.682;2023-07-02T13:52:16;4.30;;;1.45;;
70929;SDS011;58588;48.102;19.682;2023-07-02T13:55:18;6.20;;;1.60;;
70929;SDS011;58588;48.102;19.682;2023-07-02T13:58:23;6.00;;;1.40;;
70929;SDS011;58588;48.102;19.682;2023-07-02T14:01:27;5.63;;;1.30;;
70929;SDS011;58588;48.102;19.682;2023-07-02T14:04:29;4.05;;;1.13;;
70929;SDS011;58588;48.102;19.682;2023-07-02T14:07:31;3.92;;;1.20;;
70929;SDS011;58588;48.102;19.682;2023-07-02T14:10:33;4.88;;;1.30;;
70929;SDS011;58588;48.102;19.682;2023-07-02T14:13:35;4.83;;;1.20;;
70929;SDS011;58588;48.102;19.682;2023-07-02T14:16:38;3.55;;;1.00;;
70929;SDS011;58588;48.102;19.682;2023-07-02T14:19:41;4.55;;;1.08;;
70929;SDS011;58588;48.102;19.682;2023-07-02T14:22:43;4.63;;;1.05;;
70929;SDS011;58588;48.102;19.682;2023-07-02T14:25:45;4.07;;;1.00;;
70929;SDS011;58588;48.102;19.682;2023-07-02T14:28:47;4.60;;;0.90;;
70929;SDS011;58588;48.102;19.682;2023-07-02T14:31:50;3.70;;;0.93;;
70929;SDS011;58588;48.102;19.682;2023-07-02T14:34:52;4.82;;;1.05;;
70929;SDS011;58588;48.102;19.682;2023-07-02T14:37:54;4.13;;;1.23;;
70929;SDS011;58588;48.102;19.682;2023-07-02T14:40:56;4.95;;;1.10;;
70929;SDS011;58588;48.102;19.682;2023-07-02T14:43:58;4.40;;;1.10;;
70929;SDS011;58588;48.102;19.682;2023-07-02T14:47:02;7.50;;;1.20;;
70929;SDS011;58588;48.102;19.682;2023-07-02T14:50:05;6.40;;;1.25;;
70929;SDS011;58588;48.102;19.682;2023-07-02T14:53:07;4.75;;;1.05;;
70929;SDS011;58588;48.102;19.682;2023-07-02T14:56:09;4.03;;;1.30;;
70929;SDS011;58588;48.102;19.682;2023-07-02T14:59:11;4.27;;;1.23;;
70929;SDS011;58588;48.102;19.682;2023-07-02T15:02:15;5.88;;;1.10;;
70929;SDS011;58588;48.102;19.682;2023-07-02T15:05:17;5.35;;;1.38;;
70929;SDS011;58588;48.102;19.682;2023-07-02T15:08:22;4.25;;;1.25;;
70929;SDS011;58588;48.102;19.682;2023-07-02T15:11:24;5.70;;;1.20;;
70929;SDS011;58588;48.102;19.682;2023-07-02T15:14:31;6.93;;;1.30;;
70929;SDS011;58588;48.102;19.682;2023-07-02T15:17:35;5.00;;;1.60;;
70929;SDS011;58588;48.102;19.682;2023-07-02T15:20:37;5.65;;;1.30;;
70929;SDS011;58588;48.102;19.682;2023-07-02T15:23:39;4.45;;;1.10;;
70929;SDS011;58588;48.102;19.682;2023-07-02T15:26:43;3.97;;;1.17;;
70929;SDS011;58588;48.102;19.682;2023-07-02T15:29:46;6.17;;;1.50;;
70929;SDS011;58588;48.102;19.682;2023-07-02T15:32:49;6.55;;;1.48;;
70929;SDS011;58588;48.102;19.682;2023-07-02T15:35:52;10.80;;;1.63;;
70929;SDS011;58588;48.102;19.682;2023-07-02T15:38:54;4.38;;;1.50;;
70929;SDS011;58588;48.102;19.682;2023-07-02T15:41:56;4.57;;;1.50;;
70929;SDS011;58588;48.102;19.682;2023-07-02T15:44:58;4.63;;;1.60;;
70929;SDS011;58588;48.102;19.682;2023-07-02T15:48:03;4.97;;;1.77;;
70929;SDS011;58588;48.102;19.682;2023-07-02T15:51:06;5.93;;;1.73;;
70929;SDS011;58588;48.102;19.682;2023-07-02T15:54:09;4.95;;;1.42;;
70929;SDS011;58588;48.102;19.682;2023-07-02T15:57:12;4.55;;;1.58;;
70929;SDS011;58588;48.102;19.682;2023-07-02T16:00:14;11.97;;;2.77;;
70929;SDS011;58588;48.102;19.682;2023-07-02T16:03:18;4.65;;;1.60;;
70929;SDS011;58588;48.102;19.682;2023-07-02T16:06:21;7.35;;;1.80;;
70929;SDS011;58588;48.102;19.682;2023-07-02T16:09:24;7.28;;;2.00;;
70929;SDS011;58588;48.102;19.682;2023-07-02T16:12:26;5.13;;;1.50;;
70929;SDS011;58588;48.102;19.682;2023-07-02T16:15:28;7.37;;;1.77;;
70929;SDS011;58588;48.102;19.682;2023-07-02T16:18:32;6.22;;;1.80;;
70929;SDS011;58588;48.102;19.682;2023-07-02T16:21:34;6.03;;;1.95;;
70929;SDS011;58588;48.102;19.682;2023-07-02T16:24:40;4.50;;;1.52;;
70929;SDS011;58588;48.102;19.682;2023-07-02T16:27:42;6.30;;;1.55;;
70929;SDS011;58588;48.102;19.682;2023-07-02T16:30:44;6.00;;;1.80;;
70929;SDS011;58588;48.102;19.682;2023-07-02T16:33:48;6.90;;;1.77;;
70929;SDS011;58588;48.102;19.682;2023-07-02T16:36:51;5.07;;;1.60;;
70929;SDS011;58588;48.102;19.682;2023-07-02T16:39:53;5.03;;;1.80;;
70929;SDS011;58588;48.102;19.682;2023-07-02T16:42:55;4.63;;;1.80;;
70929;SDS011;58588;48.102;19.682;2023-07-02T16:46:00;6.40;;;1.70;;
70929;SDS011;58588;48.102;19.682;2023-07-02T16:49:04;8.45;;;1.90;;
70929;SDS011;58588;48.102;19.682;2023-07-02T16:52:07;4.88;;;1.67;;
70929;SDS011;58588;48.102;19.682;2023-07-02T16:55:09;6.32;;;1.98;;
70929;SDS011;58588;48.102;19.682;2023-07-02T16:58:11;6.25;;;1.40;;
70929;SDS011;58588;48.102;19.682;2023-07-02T17:01:13;4.17;;;1.40;;
70929;SDS011;58588;48.102;19.682;2023-07-02T17:04:17;5.28;;;1.35;;
70929;SDS011;58588;48.102;19.682;2023-07-02T17:07:19;6.53;;;1.60;;
70929;SDS011;58588;48.102;19.682;2023-07-02T17:10:22;5.35;;;1.70;;
70929;SDS011;58588;48.102;19.682;2023-07-02T17:13:24;4.85;;;1.40;;
70929;SDS011;58588;48.102;19.682;2023-07-02T17:16:26;5.10;;;1.60;;
70929;SDS011;58588;48.102;19.682;2023-07-02T17:19:30;4.90;;;1.48;;
70929;SDS011;58588;48.102;19.682;2023-07-02T17:22:33;4.50;;;1.40;;
70929;SDS011;58588;48.102;19.682;2023-07-02T17:25:35;6.68;;;1.60;;
70929;SDS011;58588;48.102;19.682;2023-07-02T17:28:37;8.57;;;1.40;;
70929;SDS011;58588;48.102;19.682;2023-07-02T17:31:39;4.63;;;1.30;;
70929;SDS011;58588;48.102;19.682;2023-07-02T17:34:44;8.05;;;1.23;;
70929;SDS011;58588;48.102;19.682;2023-07-02T17:37:46;5.15;;;1.50;;
70929;SDS011;58588;48.102;19.682;2023-07-02T17:40:48;5.25;;;1.33;;
70929;SDS011;58588;48.102;19.682;2023-07-02T17:43:51;6.97;;;1.45;;
70929;SDS011;58588;48.102;19.682;2023-07-02T17:46:56;5.10;;;1.30;;
70929;SDS011;58588;48.102;19.682;2023-07-02T17:50:01;7.57;;;1.52;;